Terminal Aerodrome Forecast
Issued by NWS

Home | Current Version | Previous Version | Text Only | Print | Product List | Glossary On
Versions: 1 2 3 4 5 6 7 8 9 10 11 12 13 14 15 16 17 18 19 20 21 22 23 24
000
FTUS41 KCAR 120520
TAFFVE
TAF
KFVE 120520Z 1206/1306 34003KT P6SM BKN220
     FM120900 VRB03KT P6SM BKN090 OVC150
     FM121700 10009KT 1 1/2SM -SN OVC020
     FM121900 10011KT 3/4SM -SN BR OVC008
     FM122100 10012G23KT 3/4SM -SN BLSN OVC004=

USA.gov is the U.S. government's official web portal to all federal, state and local government web resources and services.